Portada
METAR-TAF:

METAR-TAF

Aeroports :

Ambon, Indonèsia

latitud: 03-42S, longitud: 128-05E, altitud: 12 m

Observació

L'informe es va fer fa 6 hores i 10 minuts, a les 10:30 UTC
Vent 2 kt amb direcció variable
Temperatura 25°C
Humitat 89%
Pressió 1008 hPa
Visibilitat 10 km o més
Escasses núvols a una alçada de 1700 ft

METAR: WAPP 051030Z VRB02KT 9999 FEW017 25/23 Q1008 NOSIG

Hora: 01:40 (16:40 UTC)

Pronòstic

L'informe es va fer fa 5 hores i 40 minuts, a les 11:00 UTC
Pronòstic vàlid del 05 a les 12 UTC al 06 a les 12 UTC
Vent 6 kt del Sud
Visibilitat 10 km o més
Núvols disperses a una alçada de 1800 ft

TAF: WAPP 051100Z 0512/0612 18006KT 9999 SCT018

Observacions i pronòstics meteorològics de més de 4000 aeroports (METAR i TAF).

Les estacions disponibles són els punts grocs i vermells al mapa.

Posi el ratolí al punt desitjat per veure el nom de l'estació.

Feu clic per veure les observacions i els pronòstics meteorològics.

Per canviar el mapa: feu clic els botons verds amb una creu de color negre per apropar; al botó verd amb un guió per allunyar la imatge; o en les fletxes verdes per a mapes adjacents.


METAR-TAF: